createdAt,value
2022-08-04T00:00:00.321Z,99368.36
2022-08-04T00:01:03.057Z,99368.58
2022-08-04T00:02:06.068Z,99368.77
2022-08-04T00:03:08.909Z,99372.47
2022-08-04T00:04:11.486Z,99373.52
2022-08-04T00:05:14.148Z,99375.37
2022-08-04T00:06:18.555Z,99372.06
2022-08-04T00:07:21.265Z,99363.02
2022-08-04T00:08:25.695Z,99366.11
2022-08-04T00:09:28.407Z,99367.55
2022-08-04T00:10:31.283Z,99360.97
2022-08-04T00:11:33.956Z,99365.09
2022-08-04T00:12:39.585Z,99366.94
2022-08-04T00:13:54.271Z,99362.83
2022-08-04T00:14:45.545Z,99371.05
2022-08-04T00:15:48.113Z,99369.20
2022-08-04T00:16:50.788Z,99365.70
2022-08-04T00:17:53.410Z,99362.83
2022-08-04T00:18:55.975Z,99367.55
2022-08-04T00:19:58.686Z,99368.37
2022-08-04T00:21:01.662Z,99369.01
2022-08-04T00:22:04.230Z,99374.55
2022-08-04T00:23:06.798Z,99369.83
2022-08-04T00:24:11.625Z,99371.45
2022-08-04T00:25:13.835Z,99369.61
2022-08-04T00:26:18.146Z,99372.28
2022-08-04T00:27:21.971Z,99372.09
2022-08-04T00:28:24.955Z,99371.45
2022-08-04T00:29:27.540Z,99374.55
2022-08-04T00:30:30.295Z,99370.22
2022-08-04T00:31:53.698Z,99373.53
2022-08-04T00:32:37.275Z,99370.86
2022-08-04T00:33:39.841Z,99378.05
2022-08-04T00:34:44.352Z,99384.22
2022-08-04T00:35:46.913Z,99376.20
2022-08-04T00:36:49.710Z,99378.88
2022-08-04T00:37:52.354Z,99381.33
2022-08-04T00:38:54.956Z,99380.73
2022-08-04T00:39:57.599Z,99387.92
2022-08-04T00:41:00.284Z,99382.77
2022-08-04T00:42:03.356Z,99381.11
2022-08-04T00:43:06.008Z,99380.09
2022-08-04T00:44:08.575Z,99372.08
2022-08-04T00:45:11.243Z,99372.30
2022-08-04T00:46:17.515Z,99375.77
2022-08-04T00:47:19.646Z,99379.68
2022-08-04T00:48:22.744Z,99370.03
2022-08-04T00:49:25.256Z,99377.23
2022-08-04T00:50:28.070Z,99375.98
2022-08-04T00:51:30.639Z,99374.55
2022-08-04T00:52:33.984Z,99377.22
2022-08-04T00:53:36.959Z,99379.48
2022-08-04T00:54:39.573Z,99382.98
2022-08-04T00:55:42.244Z,99379.28
2022-08-04T00:56:44.965Z,99381.95
2022-08-04T00:57:47.579Z,99377.44
2022-08-04T00:58:50.143Z,99382.56
2022-08-04T00:59:52.671Z,99386.48
2022-08-04T01:00:55.685Z,99373.52
2022-08-04T01:01:58.621Z,99379.88
2022-08-04T01:03:01.269Z,99384.02
2022-08-04T01:04:03.902Z,99380.72
2022-08-04T01:05:06.468Z,99379.50
2022-08-04T01:06:09.647Z,99382.17
2022-08-04T01:07:12.256Z,99382.97
2022-08-04T01:08:14.984Z,99379.27
2022-08-04T01:09:21.371Z,99383.80
2022-08-04T01:10:22.268Z,99377.23
2022-08-04T01:11:24.851Z,99384.02
2022-08-04T01:12:27.404Z,99374.16
2022-08-04T01:13:29.968Z,99373.09
2022-08-04T01:14:32.493Z,99371.67
2022-08-04T01:16:00.209Z,99374.34
2022-08-04T01:16:39.722Z,99371.67
2022-08-04T01:17:42.283Z,99367.34
2022-08-04T01:18:44.850Z,99375.78
2022-08-04T01:19:47.419Z,99376.61
2022-08-04T01:20:50.089Z,99365.91
2022-08-04T01:21:52.717Z,99371.27
2022-08-04T01:22:55.282Z,99372.70
2022-08-04T01:23:57.855Z,99366.73
2022-08-04T01:25:02.834Z,99370.03
2022-08-04T01:26:42.220Z,99376.59
2022-08-04T01:27:09.717Z,99379.49
2022-08-04T01:28:12.356Z,99379.49
2022-08-04T01:29:16.316Z,99377.02
2022-08-04T01:30:19.955Z,99375.36
2022-08-04T01:31:22.652Z,99375.17
2022-08-04T01:32:25.744Z,99371.67
2022-08-04T01:33:28.880Z,99366.92
2022-08-04T01:34:31.649Z,99374.95
2022-08-04T01:35:46.492Z,99372.50
2022-08-04T01:36:39.066Z,99368.77
2022-08-04T01:37:42.013Z,99371.67
2022-08-04T01:38:44.543Z,99368.77
2022-08-04T01:39:47.080Z,99368.77
2022-08-04T01:40:49.815Z,99374.95
2022-08-04T01:41:57.794Z,99376.59
2022-08-04T01:42:57.101Z,99371.25
2022-08-04T01:43:59.774Z,99362.22
2022-08-04T01:45:02.521Z,99365.49
2022-08-04T01:46:05.317Z,99365.49
2022-08-04T01:47:09.734Z,99368.16
2022-08-04T01:48:12.301Z,99371.66
2022-08-04T01:49:14.877Z,99369.22
2022-08-04T01:50:17.696Z,99368.39
2022-08-04T01:51:20.297Z,99374.75
2022-08-04T01:52:23.279Z,99371.25
2022-08-04T01:53:25.939Z,99363.65
2022-08-04T01:54:28.718Z,99371.67
2022-08-04T01:55:51.978Z,99366.48
2022-08-04T01:56:36.200Z,99372.05
2022-08-04T01:57:39.530Z,99359.70
2022-08-04T01:58:42.465Z,99367.73
2022-08-04T01:59:46.110Z,99362.58
2022-08-04T02:00:53.224Z,99365.47
2022-08-04T02:01:54.115Z,99367.31
2022-08-04T02:02:57.487Z,99368.14
2022-08-04T02:04:19.751Z,99368.33
2022-08-04T02:05:04.729Z,99362.80
2022-08-04T02:06:07.595Z,99369.16
2022-08-04T02:07:10.167Z,99369.16
2022-08-04T02:08:14.601Z,99361.14
2022-08-04T02:09:17.144Z,99363.81
2022-08-04T02:10:20.981Z,99371.23
2022-08-04T02:11:23.607Z,99366.91
2022-08-04T02:12:26.176Z,99375.11
2022-08-04T02:13:28.740Z,99362.58
2022-08-04T02:14:31.409Z,99369.16
2022-08-04T02:15:34.083Z,99368.53
2022-08-04T02:16:37.056Z,99376.55
2022-08-04T02:17:39.624Z,99368.53
2022-08-04T02:18:42.192Z,99376.55
2022-08-04T02:19:44.717Z,99365.03
2022-08-04T02:20:47.487Z,99365.03
2022-08-04T02:21:50.097Z,99370.38
2022-08-04T02:22:52.664Z,99365.66
2022-08-04T02:23:55.149Z,99366.08
2022-08-04T02:24:58.413Z,99363.81
2022-08-04T02:26:01.449Z,99364.23
2022-08-04T02:27:04.024Z,99364.25
2022-08-04T02:28:06.623Z,99366.55
2022-08-04T02:29:09.291Z,99372.49
2022-08-04T02:30:12.471Z,99367.14
2022-08-04T02:31:15.247Z,99366.55
2022-08-04T02:32:17.916Z,99361.39
2022-08-04T02:33:20.484Z,99365.91
2022-08-04T02:34:23.460Z,99364.25
2022-08-04T02:35:26.030Z,99368.39
2022-08-04T02:36:29.000Z,99371.66
2022-08-04T02:37:31.574Z,99366.13
2022-08-04T02:38:34.239Z,99364.67
2022-08-04T02:39:41.529Z,99362.61
2022-08-04T02:40:41.525Z,99368.18
2022-08-04T02:41:44.151Z,99375.80
2022-08-04T02:42:46.869Z,99370.86
2022-08-04T02:43:51.130Z,99360.55
2022-08-04T02:44:53.941Z,99363.45
2022-08-04T02:45:56.473Z,99366.31
2022-08-04T02:46:59.341Z,99369.22
2022-08-04T02:48:30.521Z,99358.91
2022-08-04T02:49:06.364Z,99364.25
2022-08-04T02:50:09.537Z,99362.79
2022-08-04T02:51:12.826Z,99357.64
2022-08-04T02:52:15.448Z,99358.88
2022-08-04T02:53:18.060Z,99359.08
2022-08-04T02:54:31.609Z,99362.80
2022-08-04T02:55:25.261Z,99367.51
2022-08-04T02:56:28.348Z,99365.25
2022-08-04T02:57:30.887Z,99365.25
2022-08-04T02:58:33.557Z,99359.30
2022-08-04T02:59:36.228Z,99369.36
2022-08-04T03:00:39.070Z,99373.05
2022-08-04T03:01:57.588Z,99370.59
2022-08-04T03:02:46.538Z,99376.95
2022-08-04T03:03:49.152Z,99381.47
2022-08-04T03:04:51.769Z,99378.20
2022-08-04T03:06:01.376Z,99380.23
2022-08-04T03:06:59.062Z,99375.94
2022-08-04T03:08:01.634Z,99379.62
2022-08-04T03:09:04.544Z,99388.25
2022-08-04T03:10:07.624Z,99392.38
2022-08-04T03:11:10.148Z,99387.23
2022-08-04T03:12:12.676Z,99384.59
2022-08-04T03:13:15.226Z,99387.45
2022-08-04T03:14:17.893Z,99378.45
2022-08-04T03:15:20.410Z,99393.46
2022-08-04T03:16:23.337Z,99388.53
2022-08-04T03:17:27.843Z,99383.80
2022-08-04T03:18:30.414Z,99384.63
2022-08-04T03:19:33.038Z,99385.64
2022-08-04T03:20:35.852Z,99391.63
2022-08-04T03:21:39.444Z,99386.07
2022-08-04T03:22:59.742Z,99386.48
2022-08-04T03:23:46.519Z,99389.75
2022-08-04T03:24:49.000Z,99383.37
2022-08-04T03:25:56.999Z,99397.16
2022-08-04T03:26:56.064Z,99395.72
2022-08-04T03:27:58.591Z,99392.02
2022-08-04T03:29:01.632Z,99390.58
2022-08-04T03:30:04.590Z,99384.81
2022-08-04T03:31:07.159Z,99388.91
2022-08-04T03:32:09.839Z,99391.58
2022-08-04T03:33:12.389Z,99394.66
2022-08-04T03:34:14.954Z,99395.09
2022-08-04T03:35:22.823Z,99394.06
2022-08-04T03:36:23.578Z,99396.73
2022-08-04T03:37:26.752Z,99392.21
2022-08-04T03:38:29.418Z,99401.69
2022-08-04T03:39:32.031Z,99394.89
2022-08-04T03:40:34.819Z,99404.59
2022-08-04T03:41:51.915Z,99406.45
2022-08-04T03:42:42.247Z,99407.25
2022-08-04T03:43:58.043Z,99412.19
2022-08-04T03:44:49.209Z,99406.23
2022-08-04T03:45:51.790Z,99403.12
2022-08-04T03:46:54.566Z,99400.06
2022-08-04T03:47:57.231Z,99397.39
2022-08-04T03:48:59.805Z,99401.69
2022-08-04T03:50:02.879Z,99403.95
2022-08-04T03:51:07.349Z,99404.13
2022-08-04T03:52:09.955Z,99394.27
2022-08-04T03:53:12.527Z,99393.84
2022-08-04T03:54:15.192Z,99388.47
2022-08-04T03:55:17.760Z,99385.59
2022-08-04T03:56:20.392Z,99390.30
2022-08-04T03:57:23.294Z,99390.91
2022-08-04T03:58:30.578Z,99394.20
2022-08-04T03:59:31.320Z,99394.80
2022-08-04T04:00:34.075Z,99397.45
2022-08-04T04:02:01.584Z,99401.75
2022-08-04T04:02:41.465Z,99399.67
2022-08-04T04:03:44.337Z,99396.19
2022-08-04T04:04:47.004Z,99404.63
2022-08-04T04:06:00.209Z,99409.55
2022-08-04T04:06:54.411Z,99401.67
2022-08-04T04:08:01.338Z,99405.13
2022-08-04T04:09:01.579Z,99398.08
2022-08-04T04:10:06.337Z,99407.77
2022-08-04T04:11:09.471Z,99402.64
2022-08-04T04:12:12.038Z,99406.12
2022-08-04T04:13:14.605Z,99412.14
2022-08-04T04:14:17.171Z,99412.10
2022-08-04T04:15:19.847Z,99411.63
2022-08-04T04:16:22.822Z,99416.78
2022-08-04T04:17:25.383Z,99421.94
2022-08-04T04:18:27.951Z,99417.17
2022-08-04T04:19:30.519Z,99424.17
2022-08-04T04:20:33.499Z,99413.65
2022-08-04T04:21:36.470Z,99420.23
2022-08-04T04:22:39.463Z,99415.25
2022-08-04T04:23:42.114Z,99413.77
2022-08-04T04:24:45.706Z,99410.64
2022-08-04T04:25:48.381Z,99417.68
2022-08-04T04:26:51.069Z,99417.22
2022-08-04T04:27:53.714Z,99420.55
2022-08-04T04:28:58.539Z,99411.23
2022-08-04T04:30:00.756Z,99412.23
2022-08-04T04:31:03.359Z,99400.63
2022-08-04T04:32:05.932Z,99398.95
2022-08-04T04:33:08.495Z,99409.67
2022-08-04T04:34:11.172Z,99404.84
2022-08-04T04:35:13.729Z,99408.42
2022-08-04T04:36:16.609Z,99419.77
2022-08-04T04:37:19.340Z,99412.68
2022-08-04T04:39:38.296Z,99406.98
2022-08-04T04:40:41.412Z,99414.06
2022-08-04T04:41:44.045Z,99410.05
2022-08-04T04:42:47.060Z,99412.90
2022-08-04T04:43:52.315Z,99413.83
2022-08-04T04:44:54.145Z,99411.63
2022-08-04T04:45:56.916Z,99419.30
2022-08-04T04:46:59.888Z,99430.03
2022-08-04T04:48:08.991Z,99418.02
2022-08-04T04:49:06.864Z,99420.50
2022-08-04T04:50:10.008Z,99425.56
2022-08-04T04:51:12.614Z,99424.23
2022-08-04T04:52:15.288Z,99424.45
2022-08-04T04:53:17.948Z,99416.35
2022-08-04T04:54:20.622Z,99416.27
2022-08-04T04:55:23.189Z,99418.83
2022-08-04T04:56:26.066Z,99425.23
2022-08-04T04:57:54.079Z,99420.12
2022-08-04T04:58:33.201Z,99422.04
2022-08-04T04:59:35.813Z,99418.48
2022-08-04T05:00:38.888Z,99419.45
2022-08-04T05:01:41.821Z,99419.98
2022-08-04T05:02:44.537Z,99421.32
2022-08-04T05:03:47.204Z,99419.93
2022-08-04T05:04:49.728Z,99424.47
2022-08-04T05:05:52.337Z,99421.58
2022-08-04T05:06:55.216Z,99427.47
2022-08-04T05:07:58.084Z,99419.93
2022-08-04T05:09:01.064Z,99420.39
2022-08-04T05:10:04.039Z,99424.27
2022-08-04T05:11:06.708Z,99424.78
2022-08-04T05:14:24.839Z,99421.63
2022-08-04T05:14:34.755Z,99424.42
2022-08-04T05:14:34.836Z,99424.69
2022-08-04T05:15:25.521Z,99426.50
2022-08-04T05:16:27.187Z,99423.23
2022-08-04T05:17:29.929Z,99421.13
2022-08-04T05:18:32.456Z,99430.01
2022-08-04T05:19:34.983Z,99434.50
2022-08-04T05:20:37.860Z,99424.58
2022-08-04T05:21:41.448Z,99428.76
2022-08-04T05:22:44.160Z,99430.41
2022-08-04T05:23:46.828Z,99435.54
2022-08-04T05:24:49.391Z,99439.30
2022-08-04T05:25:59.450Z,99436.82
2022-08-04T05:26:56.678Z,99432.27
2022-08-04T05:27:59.244Z,99441.89
2022-08-04T05:29:01.877Z,99433.98
2022-08-04T05:30:04.992Z,99434.72
2022-08-04T05:31:07.762Z,99435.80
2022-08-04T05:32:10.337Z,99445.73
2022-08-04T05:33:12.957Z,99440.88
2022-08-04T05:34:17.408Z,99439.31
2022-08-04T05:35:47.891Z,99434.77
2022-08-04T05:36:40.014Z,99440.20
2022-08-04T05:37:30.321Z,99435.75
2022-08-04T05:38:33.128Z,99439.20
2022-08-04T05:39:35.668Z,99437.52
2022-08-04T05:40:38.551Z,99440.00
2022-08-04T05:41:45.853Z,99441.44
2022-08-04T05:42:45.932Z,99447.26
2022-08-04T05:43:48.500Z,99436.82
2022-08-04T05:44:51.413Z,99443.55
2022-08-04T05:45:54.257Z,99438.34
2022-08-04T05:46:57.224Z,99441.45
2022-08-04T05:47:59.748Z,99442.38
2022-08-04T05:49:03.752Z,99443.09
2022-08-04T05:50:06.463Z,99443.25
2022-08-04T05:51:09.027Z,99440.34
2022-08-04T05:52:11.593Z,99444.11
2022-08-04T05:53:14.169Z,99441.64
2022-08-04T05:54:16.728Z,99447.27
2022-08-04T05:55:58.256Z,99443.54
2022-08-04T05:56:23.909Z,99439.98
2022-08-04T05:57:26.476Z,99448.48
2022-08-04T05:58:29.044Z,99439.41
2022-08-04T05:59:31.613Z,99439.68
2022-08-04T06:00:41.177Z,99439.47
2022-08-04T06:01:55.787Z,99445.89
2022-08-04T06:02:43.720Z,99439.11
2022-08-04T06:03:46.284Z,99448.00
2022-08-04T06:04:48.955Z,99442.16
2022-08-04T06:05:51.619Z,99443.00
2022-08-04T06:06:54.703Z,99443.97
2022-08-04T06:08:07.765Z,99455.59
2022-08-04T06:09:01.881Z,99454.15
2022-08-04T06:10:04.551Z,99455.11
2022-08-04T06:11:07.243Z,99451.61
2022-08-04T06:12:09.753Z,99461.47
2022-08-04T06:13:47.678Z,99459.92
2022-08-04T06:14:16.759Z,99459.59
2022-08-04T06:15:19.344Z,99458.44
2022-08-04T06:16:29.345Z,99454.34
2022-08-04T06:18:32.933Z,99457.85
2022-08-04T06:19:58.508Z,99457.58
2022-08-04T06:20:00.789Z,99455.36
2022-08-04T06:20:47.424Z,99465.25
2022-08-04T06:21:47.016Z,99468.27
2022-08-04T06:22:49.789Z,99460.16
2022-08-04T06:24:00.927Z,99458.59
2022-08-04T06:24:56.868Z,99459.56
2022-08-04T06:25:59.392Z,99460.79
2022-08-04T06:27:02.338Z,99464.08
2022-08-04T06:28:05.080Z,99461.14
2022-08-04T06:29:07.644Z,99458.56
2022-08-04T06:30:11.548Z,99469.00
2022-08-04T06:32:28.011Z,99467.70
2022-08-04T06:32:28.385Z,99461.84
2022-08-04T06:33:23.240Z,99462.91
2022-08-04T06:34:25.720Z,99462.78
2022-08-04T06:35:28.154Z,99458.00
2022-08-04T06:36:31.176Z,99464.53
2022-08-04T06:37:41.987Z,99464.91
2022-08-04T06:38:38.300Z,99457.52
2022-08-04T06:39:40.993Z,99467.48
2022-08-04T06:40:45.512Z,99460.88
2022-08-04T06:42:14.919Z,99455.26
2022-08-04T06:42:53.207Z,99461.78
2022-08-04T06:43:55.771Z,99460.96
2022-08-04T06:44:58.444Z,99459.28
2022-08-04T06:46:01.522Z,99462.98
2022-08-04T06:47:04.498Z,99462.16
2022-08-04T06:48:07.681Z,99459.97
2022-08-04T06:49:10.458Z,99461.42
2022-08-04T06:51:25.045Z,99457.55
2022-08-04T06:51:26.910Z,99462.91
2022-08-04T06:52:22.659Z,99457.11
2022-08-04T06:53:25.326Z,99462.02
2022-08-04T06:54:28.323Z,99465.16
2022-08-04T06:55:30.868Z,99466.45
2022-08-04T06:56:33.638Z,99452.27
2022-08-04T06:57:36.162Z,99456.28
2022-08-04T06:58:38.774Z,99456.70
2022-08-04T06:59:41.341Z,99452.97
2022-08-04T07:00:44.274Z,99454.63
2022-08-04T07:01:46.967Z,99451.38
2022-08-04T07:02:49.653Z,99449.34
2022-08-04T07:03:52.222Z,99456.77
2022-08-04T07:04:54.751Z,99450.38
2022-08-04T07:05:57.253Z,99448.16
2022-08-04T07:07:00.128Z,99455.09
2022-08-04T07:08:02.696Z,99459.28
2022-08-04T07:09:05.268Z,99455.14
2022-08-04T07:10:09.265Z,99455.09
2022-08-04T07:11:11.938Z,99462.12
2022-08-04T07:12:14.599Z,99451.98
2022-08-04T07:13:17.166Z,99459.23
2022-08-04T07:14:19.734Z,99458.51
2022-08-04T07:15:22.377Z,99453.59
2022-08-04T07:16:29.772Z,99453.70
2022-08-04T07:17:34.612Z,99460.52
2022-08-04T07:18:34.099Z,99465.17
2022-08-04T07:19:36.717Z,99453.39
2022-08-04T07:20:39.642Z,99448.38
2022-08-04T07:21:42.210Z,99459.23
2022-08-04T07:22:46.841Z,99459.23
2022-08-04T07:23:49.392Z,99458.09
2022-08-04T07:24:52.009Z,99458.72
2022-08-04T07:26:00.210Z,99459.00
2022-08-04T07:26:59.443Z,99457.52
2022-08-04T07:28:01.964Z,99459.33
2022-08-04T07:29:04.577Z,99456.59
2022-08-04T07:30:07.660Z,99457.30
2022-08-04T07:31:10.279Z,99458.76
2022-08-04T07:32:13.345Z,99464.83
2022-08-04T07:33:15.966Z,99469.47
2022-08-04T07:34:21.314Z,99460.48
2022-08-04T07:36:09.271Z,99459.80
2022-08-04T07:36:30.128Z,99469.83
2022-08-04T07:37:39.316Z,99465.63
2022-08-04T07:38:37.876Z,99460.22
2022-08-04T07:39:47.825Z,99462.33
2022-08-04T07:40:45.771Z,99462.58
2022-08-04T07:41:49.016Z,99458.34
2022-08-04T07:42:51.970Z,99468.69
2022-08-04T07:43:54.621Z,99466.35
2022-08-04T07:44:57.205Z,99460.11
2022-08-04T07:45:59.771Z,99463.77
2022-08-04T07:47:02.673Z,99457.22
2022-08-04T07:48:06.033Z,99455.59
2022-08-04T07:49:08.912Z,99467.41
2022-08-04T07:50:13.218Z,99461.53
2022-08-04T07:51:15.796Z,99469.53
2022-08-04T07:52:18.316Z,99468.59
2022-08-04T07:53:55.075Z,99472.81
2022-08-04T07:54:25.385Z,99466.95
2022-08-04T07:55:28.043Z,99470.83
2022-08-04T07:56:30.827Z,99471.17
2022-08-04T07:57:41.624Z,99473.30
2022-08-04T07:58:37.803Z,99468.42
2022-08-04T08:00:50.459Z,99478.78
2022-08-04T08:01:53.152Z,99476.90
2022-08-04T08:02:55.901Z,99472.95
2022-08-04T08:03:58.547Z,99473.75
2022-08-04T08:05:01.238Z,99469.65
2022-08-04T08:06:30.852Z,99472.36
2022-08-04T08:07:08.588Z,99469.66
2022-08-04T08:08:11.165Z,99473.88
2022-08-04T08:09:14.773Z,99482.82
2022-08-04T08:10:17.961Z,99477.52
2022-08-04T08:11:20.647Z,99476.47
2022-08-04T08:12:38.400Z,99480.92
2022-08-04T08:13:32.845Z,99476.36
2022-08-04T08:14:32.432Z,99476.91
2022-08-04T08:15:34.993Z,99478.08
2022-08-04T08:16:37.972Z,99477.59
2022-08-04T08:17:59.472Z,99482.39
2022-08-04T08:18:49.856Z,99478.41
2022-08-04T08:19:49.830Z,99481.66
2022-08-04T08:20:52.617Z,99477.74
2022-08-04T08:21:59.136Z,99475.16
2022-08-04T08:22:59.821Z,99479.30
2022-08-04T08:24:03.010Z,99472.25
2022-08-04T08:25:05.637Z,99477.27
2022-08-04T08:26:08.757Z,99478.58
2022-08-04T08:27:11.332Z,99476.02
2022-08-04T08:28:13.892Z,99479.38
2022-08-04T08:29:16.408Z,99477.58
2022-08-04T08:30:19.739Z,99479.78
2022-08-04T08:31:22.300Z,99479.77
2022-08-04T08:32:26.771Z,99480.86
2022-08-04T08:33:29.316Z,99480.52
2022-08-04T08:34:31.935Z,99482.34
2022-08-04T08:35:34.513Z,99480.36
2022-08-04T08:36:39.051Z,99476.84
2022-08-04T08:37:42.299Z,99477.66
2022-08-04T08:38:45.084Z,99476.52
2022-08-04T08:39:47.715Z,99480.98
2022-08-04T08:40:50.728Z,99472.52
2022-08-04T08:41:53.253Z,99466.92
2022-08-04T08:42:55.751Z,99474.22
2022-08-04T08:44:03.925Z,99469.73
2022-08-04T08:45:03.162Z,99474.36
2022-08-04T08:46:05.920Z,99473.13
2022-08-04T08:47:08.442Z,99476.27
2022-08-04T08:48:11.017Z,99474.02
2022-08-04T08:49:13.625Z,99475.45
2022-08-04T08:50:18.458Z,99481.72
2022-08-04T08:51:21.009Z,99471.09
2022-08-04T08:52:56.231Z,99472.12
2022-08-04T08:53:28.137Z,99476.12
2022-08-04T08:54:30.755Z,99470.48
2022-08-04T08:55:33.431Z,99475.44
2022-08-04T08:56:36.308Z,99475.50
2022-08-04T08:57:59.480Z,99473.80
2022-08-04T08:58:43.386Z,99471.18
2022-08-04T08:59:46.044Z,99482.39
2022-08-04T09:00:48.835Z,99482.84
2022-08-04T09:01:51.565Z,99482.59
2022-08-04T09:03:04.849Z,99483.08
2022-08-04T09:03:58.844Z,99482.67
2022-08-04T09:05:01.445Z,99484.41
2022-08-04T09:06:04.282Z,99479.22
2022-08-04T09:07:06.900Z,99483.52
2022-08-04T09:08:09.551Z,99482.91
2022-08-04T09:09:12.220Z,99492.77
2022-08-04T09:10:15.773Z,99482.64
2022-08-04T09:11:18.597Z,99485.24
2022-08-04T09:12:25.703Z,99476.91
2022-08-04T09:13:25.660Z,99486.98
2022-08-04T09:14:28.340Z,99477.33
2022-08-04T09:15:30.999Z,99477.91
2022-08-04T09:16:33.768Z,99485.01
2022-08-04T09:17:36.317Z,99478.00
2022-08-04T09:18:38.904Z,99477.03
2022-08-04T09:19:41.468Z,99474.11
2022-08-04T09:20:44.141Z,99487.20
2022-08-04T09:21:47.078Z,99483.13
2022-08-04T09:22:50.435Z,99478.81
2022-08-04T09:23:53.067Z,99477.42
2022-08-04T09:24:55.638Z,99483.68
2022-08-04T09:25:58.302Z,99485.31
2022-08-04T09:27:00.972Z,99485.20
2022-08-04T09:28:09.174Z,99494.75
2022-08-04T09:29:08.255Z,99482.39
2022-08-04T09:30:11.249Z,99480.31
2022-08-04T09:31:13.759Z,99484.73
2022-08-04T09:32:16.371Z,99477.13
2022-08-04T09:33:22.632Z,99484.20
2022-08-04T09:34:23.453Z,99482.06
2022-08-04T09:35:26.021Z,99481.52
2022-08-04T09:36:29.047Z,99477.44
2022-08-04T09:37:31.759Z,99466.20
2022-08-04T09:38:35.925Z,99479.91
2022-08-04T09:39:38.563Z,99470.28
2022-08-04T09:40:52.982Z,99472.25
2022-08-04T09:41:49.257Z,99477.13
2022-08-04T09:42:52.073Z,99474.19
2022-08-04T09:43:59.509Z,99478.75
2022-08-04T09:45:06.439Z,99477.91
2022-08-04T09:46:04.425Z,99473.36
2022-08-04T09:47:06.952Z,99471.20
2022-08-04T09:48:10.131Z,99476.14
2022-08-04T09:49:12.800Z,99469.52
2022-08-04T09:50:15.870Z,99475.06
2022-08-04T09:51:18.710Z,99466.80
2022-08-04T09:52:21.479Z,99463.28
2022-08-04T09:53:24.401Z,99462.83
2022-08-04T09:54:30.619Z,99467.75
2022-08-04T09:55:31.373Z,99470.53
2022-08-04T09:56:34.250Z,99474.11
2022-08-04T09:57:36.916Z,99475.71
2022-08-04T09:58:39.497Z,99473.94
2022-08-04T09:59:42.052Z,99473.47
2022-08-04T10:00:44.927Z,99479.03
2022-08-04T10:01:48.216Z,99463.61
2022-08-04T10:02:53.224Z,99473.77
2022-08-04T10:03:56.086Z,99466.86
2022-08-04T10:04:58.676Z,99466.58
2022-08-04T10:06:01.247Z,99473.66
2022-08-04T10:07:03.913Z,99468.14
2022-08-04T10:08:16.653Z,99467.66
2022-08-04T10:09:11.092Z,99473.08
2022-08-04T10:10:13.825Z,99471.75
2022-08-04T10:11:16.428Z,99469.05
2022-08-04T10:12:18.953Z,99471.08
2022-08-04T10:13:21.585Z,99465.77
2022-08-04T10:14:24.406Z,99467.67
2022-08-04T10:15:27.002Z,99465.88
2022-08-04T10:16:29.880Z,99469.03
2022-08-04T10:17:32.446Z,99469.80
2022-08-04T10:18:35.119Z,99462.60
2022-08-04T10:19:37.682Z,99475.11
2022-08-04T10:20:46.374Z,99475.02
2022-08-04T10:21:50.816Z,99463.07
2022-08-04T10:23:10.609Z,99469.41
2022-08-04T10:23:55.267Z,99463.83
2022-08-04T10:24:58.743Z,99468.88
2022-08-04T10:26:06.885Z,99470.64
2022-08-04T10:27:05.784Z,99467.37
2022-08-04T10:28:08.352Z,99471.15
2022-08-04T10:29:10.981Z,99469.07
2022-08-04T10:30:14.218Z,99470.34
2022-08-04T10:31:17.401Z,99474.78
2022-08-04T10:32:20.055Z,99470.64
2022-08-04T10:34:32.678Z,99448.22
2022-08-04T10:35:35.332Z,99457.96
2022-08-04T10:36:38.126Z,99457.84
2022-08-04T10:37:59.349Z,99467.03
2022-08-04T10:38:45.140Z,99462.82
2022-08-04T10:39:47.810Z,99471.47
2022-08-04T10:40:50.831Z,99476.44
2022-08-04T10:41:53.501Z,99472.39
2022-08-04T10:42:56.065Z,99469.08
2022-08-04T10:43:58.633Z,99469.98
2022-08-04T10:45:01.202Z,99465.16
2022-08-04T10:46:03.972Z,99461.66
2022-08-04T10:47:06.640Z,99461.66
2022-08-04T10:48:10.718Z,99463.27
2022-08-04T10:49:13.743Z,99468.20
2022-08-04T10:50:16.795Z,99465.19
2022-08-04T10:51:19.321Z,99466.25
2022-08-04T10:52:21.964Z,99466.54
2022-08-04T10:53:24.455Z,99469.53
2022-08-04T10:54:27.025Z,99471.72
2022-08-04T10:56:06.634Z,99468.45
2022-08-04T10:56:34.307Z,99483.89
2022-08-04T10:57:37.058Z,99469.41
2022-08-04T10:58:47.522Z,99468.58
2022-08-04T10:59:44.100Z,99464.95
2022-08-04T11:00:47.198Z,99467.47
2022-08-04T11:01:59.510Z,99469.67
2022-08-04T11:02:54.462Z,99469.27
2022-08-04T11:03:57.028Z,99482.84
2022-08-04T11:04:59.708Z,99481.68
2022-08-04T11:06:02.238Z,99482.58
2022-08-04T11:07:05.142Z,99479.43
2022-08-04T11:08:11.900Z,99477.55
2022-08-04T11:09:14.935Z,99483.88
2022-08-04T11:10:17.509Z,99486.78
2022-08-04T11:11:20.119Z,99467.89
2022-08-04T11:12:22.680Z,99457.47
2022-08-04T11:13:30.242Z,99461.97
2022-08-04T11:14:29.764Z,99449.15
2022-08-04T11:15:32.431Z,99451.77
2022-08-04T11:16:35.508Z,99455.37
2022-08-04T11:17:38.081Z,99443.68
2022-08-04T11:18:40.754Z,99440.66
2022-08-04T11:19:47.231Z,99436.81
2022-08-04T11:20:48.028Z,99442.88
2022-08-04T11:21:50.605Z,99449.33
2022-08-04T11:22:53.269Z,99462.19
2022-08-04T11:23:55.940Z,99470.55
2022-08-04T11:24:58.609Z,99488.95
2022-08-04T11:26:01.280Z,99490.66
2022-08-04T11:27:04.250Z,99500.41
2022-08-04T11:28:06.821Z,99500.78
2022-08-04T11:29:09.483Z,99511.73
2022-08-04T11:30:13.861Z,99513.84
2022-08-04T11:31:16.566Z,99526.63
2022-08-04T11:32:19.133Z,99514.83
2022-08-04T11:33:21.799Z,99514.25
2022-08-04T11:34:24.377Z,99505.73
2022-08-04T11:35:27.043Z,99507.49
2022-08-04T11:36:29.915Z,99507.52
2022-08-04T11:37:32.477Z,99505.05
2022-08-04T11:38:35.129Z,99473.89
2022-08-04T11:39:37.771Z,99454.88
2022-08-04T11:40:40.896Z,99434.33
2022-08-04T11:41:45.409Z,99432.92
2022-08-04T11:42:48.077Z,99431.56
2022-08-04T11:43:56.183Z,99445.06
2022-08-04T11:44:55.010Z,99434.81
2022-08-04T11:45:57.621Z,99440.42
2022-08-04T11:47:00.598Z,99433.78
2022-08-04T11:48:03.272Z,99432.30
2022-08-04T11:49:05.895Z,99432.67
2022-08-04T11:50:09.196Z,99427.92
2022-08-04T11:51:11.788Z,99426.27
2022-08-04T11:52:14.353Z,99434.70
2022-08-04T11:53:18.768Z,99430.52
2022-08-04T11:54:21.468Z,99425.73
2022-08-04T11:55:23.999Z,99428.80
2022-08-04T11:56:37.306Z,99427.31
2022-08-04T11:57:36.011Z,99421.73
2022-08-04T11:58:35.653Z,99415.69
2022-08-04T11:59:38.265Z,99424.95
2022-08-04T12:00:41.152Z,99421.56
2022-08-04T12:01:44.138Z,99433.50
2022-08-04T12:02:46.814Z,99428.91
2022-08-04T12:04:03.537Z,99429.03
2022-08-04T12:04:53.919Z,99432.91
2022-08-04T12:05:56.532Z,99430.63
2022-08-04T12:07:41.290Z,99434.75
2022-08-04T12:08:03.743Z,99426.69
2022-08-04T12:09:06.584Z,99436.98
2022-08-04T12:10:11.587Z,99435.48
2022-08-04T12:11:14.177Z,99434.80
2022-08-04T12:12:16.700Z,99434.72
2022-08-04T12:13:19.309Z,99433.79
2022-08-04T12:14:21.836Z,99443.72
2022-08-04T12:15:24.444Z,99435.23
2022-08-04T12:16:30.187Z,99440.27
2022-08-04T12:17:52.359Z,99441.23
2022-08-04T12:18:36.257Z,99452.72
2022-08-04T12:19:45.229Z,99454.73
2022-08-04T12:20:43.532Z,99456.73
2022-08-04T12:21:53.118Z,99459.78
2022-08-04T12:22:52.454Z,99462.23
2022-08-04T12:24:00.454Z,99461.19